Time;durP1;ratioP1;P1;durP2;ratioP2;P2;SDS_P1;SDS_P2;PMS_P1;PMS_P2;Temp;Humidity;BMP_temperature;BMP_pressure;BME280_temperature;BME280_humidity;BME280_pressure;Samples;Min_cycle;Max_cycle;Signal;HPM_P1;HPM_P2
2022/05/09 00:01:52;;;;;;;2.15;2.00;;;;;;;;;;12494011;28;20041;-83
2022/05/09 00:07:54;;;;;;;3.72;3.10;;;;;;;;;;12481314;28;20029;-83
2022/05/09 00:13:56;;;;;;;3.28;2.30;;;;;;;;;;12497211;28;20060;-83
2022/05/09 00:19:58;;;;;;;2.50;2.30;;;;;;;;;;12516148;28;20068;-83
2022/05/09 00:26:01;;;;;;;2.57;2.20;;;;;;;;;;12481151;28;20045;-83
2022/05/09 00:32:03;;;;;;;2.53;2.20;;;;;;;;;;12512734;28;20390;-83
2022/05/09 00:38:05;;;;;;;2.13;2.03;;;;;;;;;;12495937;28;20044;-83
2022/05/09 00:44:11;;;;;;;2.17;2.00;;;;;;;;;;12492864;28;20044;-83
2022/05/09 00:50:16;;;;;;;1.80;1.70;;;;;;;;;;12493384;28;20045;-82
2022/05/09 00:56:21;;;;;;;1.83;1.70;;;;;;;;;;12492373;28;20034;-83
2022/05/09 01:02:23;;;;;;;2.03;1.92;;;;;;;;;;12510557;28;20052;-83
2022/05/09 01:08:25;;;;;;;2.50;2.30;;;;;;;;;;12489996;28;20056;-82
2022/05/09 01:14:33;;;;;;;2.05;1.95;;;;;;;;;;12477904;28;20033;-83
2022/05/09 01:20:35;;;;;;;2.42;2.22;;;;;;;;;;12496467;28;20050;-83
2022/05/09 01:26:36;;;;;;;2.83;2.35;;;;;;;;;;12479363;28;20044;-83
2022/05/09 01:32:41;;;;;;;1.73;1.63;;;;;;;;;;12515464;28;20037;-83
2022/05/09 01:38:46;;;;;;;2.13;2.00;;;;;;;;;;12493391;28;20048;-83
2022/05/09 01:44:48;;;;;;;2.47;2.22;;;;;;;;;;12480743;28;20052;-83
2022/05/09 01:50:50;;;;;;;3.03;2.83;;;;;;;;;;12482634;28;20402;-83
2022/05/09 01:56:51;;;;;;;3.43;3.13;;;;;;;;;;12487019;28;20041;-82
2022/05/09 02:02:53;;;;;;;2.27;2.17;;;;;;;;;;12500989;28;20037;-81
2022/05/09 02:08:55;;;;;;;3.40;3.10;;;;;;;;;;12464778;28;20049;-82
2022/05/09 02:14:57;;;;;;;3.17;2.73;;;;;;;;;;12500277;28;20044;-82
2022/05/09 02:20:58;;;;;;;3.70;3.17;;;;;;;;;;12500915;28;20052;-82
2022/05/09 02:27:00;;;;;;;4.43;3.33;;;;;;;;;;12462417;28;20072;-82
2022/05/09 02:33:05;;;;;;;3.50;3.20;;;;;;;;;;12496116;28;20041;-82
2022/05/09 02:39:07;;;;;;;2.67;2.47;;;;;;;;;;12496341;28;20029;-81
2022/05/09 02:45:09;;;;;;;3.35;2.97;;;;;;;;;;12496262;28;20029;-81
2022/05/09 02:51:11;;;;;;;2.30;2.20;;;;;;;;;;12478555;28;20045;-81
2022/05/09 02:57:14;;;;;;;3.25;3.05;;;;;;;;;;12478600;28;20510;-82
2022/05/09 03:09:37;;;;;;;2.67;2.47;;;;;;;;;;12495510;28;20076;-81
2022/05/09 03:15:40;;;;;;;3.30;3.10;;;;;;;;;;12477982;28;20029;-81
2022/05/09 03:21:42;;;;;;;3.03;2.72;;;;;;;;;;12503370;28;20314;-81
2022/05/09 03:27:44;;;;;;;2.77;2.50;;;;;;;;;;12504588;28;20033;-81
2022/05/09 03:33:45;;;;;;;3.13;2.90;;;;;;;;;;12470347;28;20048;-81
2022/05/09 03:39:47;;;;;;;3.30;2.67;;;;;;;;;;12487130;28;20634;-81
2022/05/09 03:45:50;;;;;;;2.90;2.70;;;;;;;;;;12505078;28;20033;-81
2022/05/09 03:51:51;;;;;;;3.08;2.88;;;;;;;;;;12506722;28;20050;-82
2022/05/09 03:57:56;;;;;;;2.78;2.58;;;;;;;;;;12489113;28;20133;-81
2022/05/09 04:03:59;;;;;;;2.65;2.45;;;;;;;;;;12503936;28;20033;-82
2022/05/09 04:10:02;;;;;;;3.50;2.85;;;;;;;;;;12467452;28;20044;-82
2022/05/09 04:22:24;;;;;;;3.75;3.45;;;;;;;;;;12507085;28;20048;-83
2022/05/09 04:28:25;;;;;;;4.27;3.63;;;;;;;;;;12500713;28;20030;-81
2022/05/09 04:34:28;;;;;;;6.55;3.75;;;;;;;;;;12470298;28;20398;-81
2022/05/09 04:40:30;;;;;;;4.38;2.90;;;;;;;;;;12504633;28;20138;-81
2022/05/09 04:46:33;;;;;;;3.78;3.22;;;;;;;;;;12500290;28;20477;-81
2022/05/09 04:52:35;;;;;;;3.40;3.10;;;;;;;;;;12500087;28;20045;-81
2022/05/09 04:58:36;;;;;;;6.18;3.78;;;;;;;;;;12499163;28;20040;-82
2022/05/09 05:04:39;;;;;;;3.57;3.27;;;;;;;;;;12481167;28;20034;-82
2022/05/09 05:10:42;;;;;;;3.33;3.00;;;;;;;;;;12467320;28;20041;-79
2022/05/09 05:16:59;;;;;;;3.22;3.00;;;;;;;;;;12482189;28;20045;-80
2022/05/09 05:23:01;;;;;;;3.80;3.50;;;;;;;;;;12432452;28;20398;-80
2022/05/09 05:29:02;;;;;;;3.83;3.17;;;;;;;;;;12432225;28;20046;-81
2022/05/09 05:35:05;;;;;;;3.67;3.37;;;;;;;;;;12428874;28;20044;-79
2022/05/09 05:41:07;;;;;;;3.10;2.90;;;;;;;;;;12430609;28;20041;-79
2022/05/09 05:47:10;;;;;;;3.20;3.00;;;;;;;;;;12452650;28;20034;-79
2022/05/09 05:53:12;;;;;;;5.78;3.63;;;;;;;;;;12425754;28;20045;-75
2022/05/09 05:59:13;;;;;;;3.17;2.97;;;;;;;;;;12439564;28;20829;-75
2022/05/09 06:05:16;;;;;;;5.57;4.23;;;;;;;;;;12461965;28;20033;-75
2022/05/09 06:11:18;;;;;;;5.13;4.53;;;;;;;;;;12430092;28;20049;-75
2022/05/09 06:17:20;;;;;;;3.60;3.28;;;;;;;;;;12440978;28;20056;-76
2022/05/09 06:23:22;;;;;;;7.67;5.93;;;;;;;;;;12479448;28;20482;-76
2022/05/09 06:29:24;;;;;;;26.27;23.77;;;;;;;;;;12457893;28;20401;-75
2022/05/09 06:35:27;;;;;;;12.80;9.90;;;;;;;;;;12456145;28;20411;-77
2022/05/09 06:41:29;;;;;;;10.80;9.70;;;;;;;;;;12474875;28;20033;-78
2022/05/09 06:47:31;;;;;;;8.80;7.88;;;;;;;;;;12462696;28;20030;-78
2022/05/09 06:53:33;;;;;;;6.50;5.90;;;;;;;;;;12485528;28;20037;-79
2022/05/09 06:59:35;;;;;;;;;;;;;;;;;;12464603;28;20021;-77
2022/05/09 07:05:38;;;;;;;8.77;7.90;;;;;;;;;;12490048;28;19913;-78
2022/05/09 07:11:40;;;;;;;6.65;5.97;;;;;;;;;;12500830;28;20499;-79
2022/05/09 07:17:42;;;;;;;5.22;4.70;;;;;;;;;;12472025;28;20383;-78
2022/05/09 07:23:44;;;;;;;3.93;3.63;;;;;;;;;;12477795;28;20048;-78
2022/05/09 07:29:45;;;;;;;6.38;3.75;;;;;;;;;;12488497;28;20296;-76
2022/05/09 07:35:50;;;;;;;5.05;3.35;;;;;;;;;;12477612;28;20048;-78
2022/05/09 07:41:52;;;;;;;4.80;3.72;;;;;;;;;;12471775;28;20029;-78
2022/05/09 07:47:53;;;;;;;11.73;10.83;;;;;;;;;;12497580;28;20044;-77
2022/05/09 07:53:56;;;;;;;5.78;5.28;;;;;;;;;;12500079;28;20072;-80
2022/05/09 07:59:59;;;;;;;4.82;4.25;;;;;;;;;;12498804;28;20041;-80
2022/05/09 08:06:02;;;;;;;4.50;4.10;;;;;;;;;;12495371;28;20485;-80
2022/05/09 08:12:05;;;;;;;7.70;7.13;;;;;;;;;;12488502;28;20033;-81
2022/05/09 08:18:06;;;;;;;4.53;4.22;;;;;;;;;;12469693;28;20033;-84
2022/05/09 08:24:08;;;;;;;5.07;4.53;;;;;;;;;;12494507;28;20036;-80
2022/05/09 08:30:12;;;;;;;3.83;3.42;;;;;;;;;;12476178;28;20087;-81
2022/05/09 08:36:45;;;;;;;3.50;3.20;;;;;;;;;;12479173;28;20040;-80
2022/05/09 08:42:40;;;;;;;4.27;3.57;;;;;;;;;;12498648;28;20037;-79
2022/05/09 08:48:51;;;;;;;4.63;2.83;;;;;;;;;;12491223;28;20029;-82
2022/05/09 08:54:54;;;;;;;3.17;2.88;;;;;;;;;;12474063;28;20055;-80
2022/05/09 09:00:56;;;;;;;7.35;3.38;;;;;;;;;;12454989;28;20029;-80
2022/05/09 09:06:58;;;;;;;6.95;6.35;;;;;;;;;;12474930;28;20051;-80
2022/05/09 09:13:09;;;;;;;5.15;3.78;;;;;;;;;;12465504;28;20056;-79
2022/05/09 09:19:26;;;;;;;5.65;5.10;;;;;;;;;;12479412;28;20442;-79
2022/05/09 09:25:43;;;;;;;3.90;3.60;;;;;;;;;;12473394;28;20061;-79
2022/05/09 09:31:49;;;;;;;5.13;3.35;;;;;;;;;;12460596;28;20048;-79
2022/05/09 09:37:51;;;;;;;3.55;3.25;;;;;;;;;;12448132;28;20471;-79
2022/05/09 09:43:59;;;;;;;5.32;3.63;;;;;;;;;;12480744;28;20029;-81
2022/05/09 09:50:12;;;;;;;5.07;4.03;;;;;;;;;;12453831;28;20040;-80
2022/05/09 09:56:22;;;;;;;4.18;3.70;;;;;;;;;;12478658;28;20409;-80
2022/05/09 10:02:30;;;;;;;4.15;3.75;;;;;;;;;;12462627;28;20026;-80
2022/05/09 10:08:35;;;;;;;3.45;3.15;;;;;;;;;;12465309;28;20363;-80
2022/05/09 10:14:36;;;;;;;3.60;3.30;;;;;;;;;;12482036;28;20478;-80
2022/05/09 10:20:38;;;;;;;;;;;;;;;;;;12465091;28;20407;-80
2022/05/09 10:26:40;;;;;;;3.33;2.93;;;;;;;;;;12470889;28;19931;-80
2022/05/09 10:32:41;;;;;;;;;;;;;;;;;;12458146;28;20049;-79
2022/05/09 10:39:04;;;;;;;3.10;2.90;;;;;;;;;;12492212;28;19940;-80
2022/05/09 10:45:09;;;;;;;2.78;2.58;;;;;;;;;;12468382;28;20029;-79
2022/05/09 10:51:38;;;;;;;2.97;2.63;;;;;;;;;;12457140;28;20525;-79
2022/05/09 10:57:47;;;;;;;2.65;2.45;;;;;;;;;;12463228;28;20610;-80
2022/05/09 11:03:49;;;;;;;2.97;2.65;;;;;;;;;;12468196;28;20033;-79
2022/05/09 11:10:06;;;;;;;2.70;2.50;;;;;;;;;;12456640;28;20483;-80
2022/05/09 11:16:33;;;;;;;3.83;3.53;;;;;;;;;;12460135;28;20489;-78
2022/05/09 11:22:41;;;;;;;4.50;3.38;;;;;;;;;;12457663;28;20038;-78
2022/05/09 11:29:01;;;;;;;3.55;3.35;;;;;;;;;;12464002;28;20040;-78
2022/05/09 11:35:18;;;;;;;3.88;2.97;;;;;;;;;;12466394;28;20061;-79
2022/05/09 11:41:20;;;;;;;4.07;3.67;;;;;;;;;;12481899;28;20389;-79
2022/05/09 11:47:21;;;;;;;;;;;;;;;;;;12477201;28;20037;-80
2022/05/09 11:53:25;;;;;;;3.60;3.30;;;;;;;;;;12472909;28;20456;-82
2022/05/09 11:59:37;;;;;;;5.90;5.40;;;;;;;;;;12456788;28;20381;-79
2022/05/09 12:05:39;;;;;;;5.28;4.75;;;;;;;;;;12484231;28;20025;-80
2022/05/09 12:11:40;;;;;;;;;;;;;;;;;;12455147;28;20070;-80
2022/05/09 12:17:48;;;;;;;4.75;4.25;;;;;;;;;;12479126;28;20368;-81
2022/05/09 12:23:51;;;;;;;4.45;4.05;;;;;;;;;;12482257;28;20029;-81
2022/05/09 12:29:58;;;;;;;4.15;3.42;;;;;;;;;;12472313;28;20049;-81
2022/05/09 12:36:03;;;;;;;3.95;3.65;;;;;;;;;;12465858;28;20040;-81
2022/05/09 12:42:13;;;;;;;4.03;3.72;;;;;;;;;;12468183;28;20040;-81
2022/05/09 12:48:15;;;;;;;3.60;3.30;;;;;;;;;;12474098;28;20410;-82
2022/05/09 12:54:19;;;;;;;3.30;3.00;;;;;;;;;;12473287;28;20401;-79
2022/05/09 13:00:23;;;;;;;10.35;9.45;;;;;;;;;;12478104;28;20025;-78
2022/05/09 13:06:26;;;;;;;7.75;7.15;;;;;;;;;;12467726;28;20052;-78
2022/05/09 13:12:29;;;;;;;13.90;12.70;;;;;;;;;;12466828;28;20048;-77
2022/05/09 13:18:32;;;;;;;9.40;8.55;;;;;;;;;;12461171;28;20543;-78
2022/05/09 13:24:34;;;;;;;5.60;5.10;;;;;;;;;;12498993;28;20037;-78
2022/05/09 13:30:38;;;;;;;4.18;3.88;;;;;;;;;;12471189;28;20379;-79
2022/05/09 13:36:40;;;;;;;3.42;2.50;;;;;;;;;;12523775;28;20083;-80
2022/05/09 13:42:43;;;;;;;4.45;2.80;;;;;;;;;;12527265;28;20029;-80
2022/05/09 13:48:49;;;;;;;8.07;3.42;;;;;;;;;;12528304;28;20043;-78
2022/05/09 13:54:52;;;;;;;3.50;2.92;;;;;;;;;;12545893;28;20493;-78
2022/05/09 14:00:54;;;;;;;5.18;4.68;;;;;;;;;;12545596;28;20482;-78
2022/05/09 14:06:59;;;;;;;4.35;3.58;;;;;;;;;;12544195;28;20037;-78
2022/05/09 14:13:01;;;;;;;9.65;8.95;;;;;;;;;;12544823;28;20052;-78
2022/05/09 14:19:09;;;;;;;5.43;4.35;;;;;;;;;;12545608;28;20414;-78
2022/05/09 14:31:42;;;;;;;6.35;5.32;;;;;;;;;;12545224;28;20045;-78
2022/05/09 14:37:48;;;;;;;4.50;4.10;;;;;;;;;;12544240;28;20041;-79
2022/05/09 14:44:08;;;;;;;3.13;2.90;;;;;;;;;;12510390;28;20384;-78
2022/05/09 14:50:33;;;;;;;4.22;2.70;;;;;;;;;;12545382;28;20041;-77
2022/05/09 15:03:00;;;;;;;2.63;2.22;;;;;;;;;;12544179;28;20078;-79
2022/05/09 15:09:01;;;;;;;2.78;2.10;;;;;;;;;;12544482;28;20025;-78
2022/05/09 15:15:03;;;;;;;2.90;1.92;;;;;;;;;;12529082;28;20048;-78
2022/05/09 15:21:05;;;;;;;2.35;2.15;;;;;;;;;;12554151;28;20060;-78
2022/05/09 15:27:07;;;;;;;3.50;2.50;;;;;;;;;;12552909;28;20478;-79
2022/05/09 15:33:09;;;;;;;2.90;1.88;;;;;;;;;;12518600;28;20037;-79
2022/05/09 15:39:12;;;;;;;2.42;1.50;;;;;;;;;;12518408;28;20037;-78
2022/05/09 15:45:16;;;;;;;1.48;1.38;;;;;;;;;;12534120;28;20036;-78
2022/05/09 15:51:18;;;;;;;1.65;1.40;;;;;;;;;;12551357;28;20041;-79
2022/05/09 15:57:23;;;;;;;1.70;1.60;;;;;;;;;;12551497;28;20037;-79
2022/05/09 16:03:26;;;;;;;2.67;1.95;;;;;;;;;;12534901;28;20466;-78
2022/05/09 16:15:49;;;;;;;2.25;1.70;;;;;;;;;;12532811;28;20052;-78
2022/05/09 16:21:50;;;;;;;2.13;1.90;;;;;;;;;;12532316;28;20053;-78
2022/05/09 16:27:52;;;;;;;2.97;1.63;;;;;;;;;;12549000;28;20500;-79
2022/05/09 16:33:55;;;;;;;1.92;1.83;;;;;;;;;;12549941;28;20401;-79
2022/05/09 16:39:57;;;;;;;3.28;1.60;;;;;;;;;;12549666;28;20048;-79
2022/05/09 16:45:58;;;;;;;1.80;1.63;;;;;;;;;;12550582;28;20036;-79
2022/05/09 16:52:00;;;;;;;2.97;2.08;;;;;;;;;;12514699;28;20045;-79
2022/05/09 16:58:03;;;;;;;2.20;1.95;;;;;;;;;;12548883;28;20036;-78
2022/05/09 17:04:05;;;;;;;2.15;1.95;;;;;;;;;;12531117;28;20037;-78
2022/05/09 17:10:09;;;;;;;2.13;2.00;;;;;;;;;;12547965;28;20052;-79
2022/05/09 17:16:10;;;;;;;1.83;1.70;;;;;;;;;;12547994;28;20033;-79
2022/05/09 17:22:12;;;;;;;1.90;1.80;;;;;;;;;;12530074;28;20064;-78
2022/05/09 17:28:16;;;;;;;2.03;1.80;;;;;;;;;;12546979;28;20425;-79
2022/05/09 17:34:18;;;;;;;2.03;1.75;;;;;;;;;;12546537;28;20045;-79
2022/05/09 17:40:20;;;;;;;1.77;1.55;;;;;;;;;;12546140;28;20036;-79
2022/05/09 17:46:22;;;;;;;2.90;2.03;;;;;;;;;;12546748;28;20635;-79
2022/05/09 17:52:24;;;;;;;3.42;1.90;;;;;;;;;;12527627;28;20044;-79
2022/05/09 17:58:28;;;;;;;3.05;2.05;;;;;;;;;;12528404;28;20029;-78
2022/05/09 18:04:30;;;;;;;2.00;1.80;;;;;;;;;;12545714;28;20036;-79
2022/05/09 18:10:33;;;;;;;2.05;1.77;;;;;;;;;;12527221;28;20045;-79
2022/05/09 18:16:35;;;;;;;1.60;1.50;;;;;;;;;;12545045;28;20040;-79
2022/05/09 18:22:36;;;;;;;;;;;;;;;;;;12545598;28;20075;-83
2022/05/09 18:28:38;;;;;;;1.83;1.60;;;;;;;;;;12526704;28;19908;-88
2022/05/09 18:34:40;;;;;;;;;;;;;;;;;;12526641;28;20513;-80
2022/05/09 18:40:41;;;;;;;1.60;1.50;;;;;;;;;;12544504;28;20369;-83
2022/05/09 18:46:44;;;;;;;2.17;1.70;;;;;;;;;;12527022;28;20039;-81
2022/05/09 18:52:47;;;;;;;1.73;1.63;;;;;;;;;;12508450;28;20493;-86
2022/05/09 18:58:49;;;;;;;2.22;1.60;;;;;;;;;;12526770;28;20469;-79
2022/05/09 19:04:51;;;;;;;2.55;2.05;;;;;;;;;;12526352;28;20039;-82
2022/05/09 19:10:55;;;;;;;2.60;1.83;;;;;;;;;;12509444;28;20389;-86
2022/05/09 19:16:59;;;;;;;3.03;2.33;;;;;;;;;;12509921;28;20040;-88
2022/05/09 19:23:00;;;;;;;2.00;1.60;;;;;;;;;;12543430;28;20079;-83
2022/05/09 19:29:05;;;;;;;3.58;3.28;;;;;;;;;;12510137;28;20401;-85
2022/05/09 19:35:10;;;;;;;5.35;3.80;;;;;;;;;;12542837;28;20045;-89
2022/05/09 19:41:18;;;;;;;8.02;4.88;;;;;;;;;;12542792;28;20028;-80
2022/05/09 19:47:22;;;;;;;3.15;2.33;;;;;;;;;;12542962;28;20037;-82
2022/05/09 19:59:44;;;;;;;4.63;3.35;;;;;;;;;;12525528;28;20505;-81
2022/05/09 20:05:46;;;;;;;3.00;2.80;;;;;;;;;;12551226;28;20067;-81
2022/05/09 20:11:50;;;;;;;3.60;2.80;;;;;;;;;;12534128;28;20037;-85
2022/05/09 20:17:53;;;;;;;3.15;2.78;;;;;;;;;;12552187;28;20049;-85
2022/05/09 20:23:55;;;;;;;3.30;3.00;;;;;;;;;;12533370;28;20048;-88
2022/05/09 20:29:57;;;;;;;2.83;2.63;;;;;;;;;;12533018;28;20037;-83
2022/05/09 20:35:59;;;;;;;3.00;2.67;;;;;;;;;;12551931;28;20060;-84
2022/05/09 20:42:01;;;;;;;3.25;2.92;;;;;;;;;;12532642;28;20029;-85
2022/05/09 20:48:03;;;;;;;3.08;2.75;;;;;;;;;;12550528;28;20063;-84
2022/05/09 20:54:05;;;;;;;2.63;2.45;;;;;;;;;;12531462;28;20063;-85
2022/05/09 21:00:10;;;;;;;3.60;2.70;;;;;;;;;;12549026;28;20037;-84
2022/05/09 21:06:35;;;;;;;3.58;2.72;;;;;;;;;;12548165;28;20056;-84
2022/05/09 21:12:37;;;;;;;3.42;3.17;;;;;;;;;;12530012;28;20041;-83
2022/05/09 21:18:38;;;;;;;3.53;3.22;;;;;;;;;;12514518;28;20433;-84
2022/05/09 21:24:40;;;;;;;3.17;2.97;;;;;;;;;;12530427;28;20394;-84
2022/05/09 21:30:42;;;;;;;3.67;3.05;;;;;;;;;;12529751;28;20033;-84
2022/05/09 21:36:43;;;;;;;3.43;3.13;;;;;;;;;;12529781;28;20037;-84
2022/05/09 21:42:46;;;;;;;4.33;3.13;;;;;;;;;;12547019;28;20283;-84
2022/05/09 21:48:48;;;;;;;3.40;3.17;;;;;;;;;;12529887;28;20605;-84
2022/05/09 21:54:50;;;;;;;3.38;3.08;;;;;;;;;;12528597;28;20048;-84
2022/05/09 22:00:53;;;;;;;2.67;2.45;;;;;;;;;;12511633;28;20501;-84
2022/05/09 22:06:58;;;;;;;3.38;3.05;;;;;;;;;;12511880;28;20033;-84
2022/05/09 22:13:00;;;;;;;5.38;4.43;;;;;;;;;;12512245;28;20044;-84
2022/05/09 22:19:02;;;;;;;5.78;4.13;;;;;;;;;;12528095;28;20048;-84
2022/05/09 22:25:04;;;;;;;4.47;3.85;;;;;;;;;;12526568;28;20040;-84
2022/05/09 22:31:06;;;;;;;3.55;3.25;;;;;;;;;;12544755;28;20049;-84
2022/05/09 22:37:10;;;;;;;5.17;4.67;;;;;;;;;;12544458;28;20034;-84
2022/05/09 22:43:12;;;;;;;6.00;4.82;;;;;;;;;;12510083;28;20025;-84
2022/05/09 22:49:19;;;;;;;5.68;3.80;;;;;;;;;;12526522;28;20037;-84
2022/05/09 22:55:21;;;;;;;5.55;4.85;;;;;;;;;;12510290;28;20064;-84
2022/05/09 23:01:29;;;;;;;4.82;4.35;;;;;;;;;;12527122;28;20029;-83
2022/05/09 23:07:31;;;;;;;5.13;4.30;;;;;;;;;;12526507;28;20033;-83
2022/05/09 23:13:33;;;;;;;4.93;4.27;;;;;;;;;;12526035;28;20398;-84
2022/05/09 23:19:35;;;;;;;5.38;4.88;;;;;;;;;;12525982;28;20084;-84
2022/05/09 23:25:37;;;;;;;5.63;5.13;;;;;;;;;;12525846;28;20032;-84
2022/05/09 23:31:39;;;;;;;5.30;4.80;;;;;;;;;;12543300;28;20525;-83
2022/05/09 23:37:41;;;;;;;4.67;4.30;;;;;;;;;;12515296;28;20055;-83
2022/05/09 23:43:45;;;;;;;4.38;3.97;;;;;;;;;;12553199;28;20482;-83
2022/05/09 23:49:47;;;;;;;6.30;4.78;;;;;;;;;;12535306;28;20389;-84
2022/05/09 23:55:50;;;;;;;4.72;4.30;;;;;;;;;;12534068;28;20052;-83
